sensor_id;sensor_type;location;lat;lon;timestamp;P1;durP1;ratioP1;P2;durP2;ratioP2
11010;SDS011;5558;42.702;23.178;2023-08-07T09:41:28;1.13;;;1.13;;
11010;SDS011;5558;42.702;23.178;2023-08-07T09:43:55;1.17;;;1.07;;
11010;SDS011;5558;42.702;23.178;2023-08-07T09:46:22;1.30;;;1.20;;
11010;SDS011;5558;42.702;23.178;2023-08-07T09:48:51;1.10;;;1.10;;
11010;SDS011;5558;42.702;23.178;2023-08-07T09:51:17;1.10;;;1.00;;
11010;SDS011;5558;42.702;23.178;2023-08-07T09:53:46;2.23;;;1.30;;
11010;SDS011;5558;42.702;23.178;2023-08-07T09:56:13;0.90;;;0.90;;
11010;SDS011;5558;42.702;23.178;2023-08-07T09:58:44;1.30;;;1.10;;
11010;SDS011;5558;42.702;23.178;2023-08-07T10:01:14;1.23;;;1.13;;
11010;SDS011;5558;42.702;23.178;2023-08-07T10:03:42;1.10;;;1.00;;
11010;SDS011;5558;42.702;23.178;2023-08-07T10:06:09;1.20;;;1.20;;
11010;SDS011;5558;42.702;23.178;2023-08-07T10:08:37;1.20;;;1.00;;
11010;SDS011;5558;42.702;23.178;2023-08-07T10:11:05;1.10;;;1.10;;
11010;SDS011;5558;42.702;23.178;2023-08-07T10:13:34;0.97;;;0.97;;
11010;SDS011;5558;42.702;23.178;2023-08-07T10:16:04;1.00;;;1.00;;
11010;SDS011;5558;42.702;23.178;2023-08-07T10:18:31;1.00;;;1.00;;
11010;SDS011;5558;42.702;23.178;2023-08-07T10:20:58;1.00;;;1.00;;
11010;SDS011;5558;42.702;23.178;2023-08-07T10:23:27;1.47;;;1.20;;
11010;SDS011;5558;42.702;23.178;2023-08-07T10:25:54;1.00;;;1.00;;
11010;SDS011;5558;42.702;23.178;2023-08-07T10:28:22;1.10;;;1.10;;
11010;SDS011;5558;42.702;23.178;2023-08-07T10:30:51;1.10;;;1.00;;
11010;SDS011;5558;42.702;23.178;2023-08-07T10:33:20;1.10;;;1.00;;
11010;SDS011;5558;42.702;23.178;2023-08-07T10:35:47;1.00;;;1.00;;
11010;SDS011;5558;42.702;23.178;2023-08-07T10:38:14;1.47;;;1.00;;
11010;SDS011;5558;42.702;23.178;2023-08-07T10:41:00;1.00;;;1.00;;
11010;SDS011;5558;42.702;23.178;2023-08-07T10:43:28;1.73;;;1.07;;
11010;SDS011;5558;42.702;23.178;2023-08-07T10:46:02;1.00;;;1.00;;
11010;SDS011;5558;42.702;23.178;2023-08-07T10:48:31;0.93;;;0.93;;
11010;SDS011;5558;42.702;23.178;2023-08-07T10:51:04;1.00;;;1.00;;
11010;SDS011;5558;42.702;23.178;2023-08-07T10:53:31;1.83;;;1.00;;
11010;SDS011;5558;42.702;23.178;2023-08-07T10:56:01;1.00;;;1.00;;
11010;SDS011;5558;42.702;23.178;2023-08-07T10:58:29;1.10;;;1.03;;
11010;SDS011;5558;42.702;23.178;2023-08-07T11:03:46;1.10;;;1.10;;
11010;SDS011;5558;42.702;23.178;2023-08-07T11:06:16;0.97;;;0.97;;
11010;SDS011;5558;42.702;23.178;2023-08-07T11:08:43;1.10;;;1.10;;
11010;SDS011;5558;42.702;23.178;2023-08-07T11:11:10;1.87;;;1.20;;
11010;SDS011;5558;42.702;23.178;2023-08-07T11:13:36;1.17;;;1.10;;
11010;SDS011;5558;42.702;23.178;2023-08-07T11:16:03;1.27;;;1.10;;
11010;SDS011;5558;42.702;23.178;2023-08-07T11:18:31;1.47;;;1.03;;
11010;SDS011;5558;42.702;23.178;2023-08-07T11:20:59;1.10;;;1.00;;
11010;SDS011;5558;42.702;23.178;2023-08-07T11:23:26;1.10;;;1.00;;
11010;SDS011;5558;42.702;23.178;2023-08-07T11:25:54;1.30;;;1.07;;
11010;SDS011;5558;42.702;23.178;2023-08-07T11:28:22;1.23;;;1.00;;
11010;SDS011;5558;42.702;23.178;2023-08-07T11:30:49;1.00;;;1.00;;
11010;SDS011;5558;42.702;23.178;2023-08-07T11:33:17;1.00;;;1.00;;
11010;SDS011;5558;42.702;23.178;2023-08-07T11:35:44;1.20;;;1.10;;
11010;SDS011;5558;42.702;23.178;2023-08-07T11:38:12;1.30;;;1.10;;
11010;SDS011;5558;42.702;23.178;2023-08-07T11:40:54;1.83;;;1.00;;
11010;SDS011;5558;42.702;23.178;2023-08-07T11:43:22;1.00;;;1.00;;
11010;SDS011;5558;42.702;23.178;2023-08-07T11:45:49;1.10;;;1.00;;
11010;SDS011;5558;42.702;23.178;2023-08-07T11:48:16;1.20;;;1.10;;
11010;SDS011;5558;42.702;23.178;2023-08-07T11:50:43;1.50;;;1.10;;
11010;SDS011;5558;42.702;23.178;2023-08-07T11:53:10;1.13;;;1.03;;
11010;SDS011;5558;42.702;23.178;2023-08-07T11:55:38;0.97;;;0.97;;
11010;SDS011;5558;42.702;23.178;2023-08-07T11:58:12;1.47;;;1.00;;
11010;SDS011;5558;42.702;23.178;2023-08-07T12:00:41;1.70;;;1.00;;
11010;SDS011;5558;42.702;23.178;2023-08-07T12:03:22;1.07;;;1.00;;
11010;SDS011;5558;42.702;23.178;2023-08-07T12:05:51;1.00;;;1.00;;
11010;SDS011;5558;42.702;23.178;2023-08-07T12:08:18;1.30;;;1.20;;
11010;SDS011;5558;42.702;23.178;2023-08-07T12:10:49;1.17;;;1.10;;
11010;SDS011;5558;42.702;23.178;2023-08-07T12:13:19;1.07;;;1.07;;
11010;SDS011;5558;42.702;23.178;2023-08-07T12:15:49;1.83;;;1.30;;
11010;SDS011;5558;42.702;23.178;2023-08-07T12:18:18;0.97;;;0.97;;
11010;SDS011;5558;42.702;23.178;2023-08-07T12:20:45;0.97;;;0.97;;
11010;SDS011;5558;42.702;23.178;2023-08-07T12:23:13;1.03;;;1.03;;
11010;SDS011;5558;42.702;23.178;2023-08-07T12:25:42;1.40;;;1.30;;
11010;SDS011;5558;42.702;23.178;2023-08-07T12:28:10;1.47;;;1.20;;
11010;SDS011;5558;42.702;23.178;2023-08-07T12:30:37;2.20;;;1.20;;
11010;SDS011;5558;42.702;23.178;2023-08-07T12:33:04;2.03;;;1.10;;
11010;SDS011;5558;42.702;23.178;2023-08-07T12:35:32;2.47;;;1.37;;
11010;SDS011;5558;42.702;23.178;2023-08-07T12:37:59;2.30;;;1.30;;
11010;SDS011;5558;42.702;23.178;2023-08-07T12:40:26;2.43;;;1.20;;
11010;SDS011;5558;42.702;23.178;2023-08-07T12:42:53;1.70;;;1.10;;
11010;SDS011;5558;42.702;23.178;2023-08-07T12:45:21;3.13;;;1.30;;
11010;SDS011;5558;42.702;23.178;2023-08-07T12:47:48;2.47;;;1.27;;
11010;SDS011;5558;42.702;23.178;2023-08-07T12:50:15;1.40;;;1.30;;
11010;SDS011;5558;42.702;23.178;2023-08-07T12:52:42;1.40;;;1.30;;
11010;SDS011;5558;42.702;23.178;2023-08-07T12:55:09;2.20;;;1.27;;
11010;SDS011;5558;42.702;23.178;2023-08-07T12:57:37;3.13;;;1.40;;
11010;SDS011;5558;42.702;23.178;2023-08-07T13:00:04;3.47;;;1.40;;
11010;SDS011;5558;42.702;23.178;2023-08-07T13:02:34;3.17;;;1.40;;
11010;SDS011;5558;42.702;23.178;2023-08-07T13:05:01;3.43;;;1.20;;
11010;SDS011;5558;42.702;23.178;2023-08-07T13:07:27;1.30;;;1.20;;
11010;SDS011;5558;42.702;23.178;2023-08-07T13:09:54;1.17;;;1.07;;
11010;SDS011;5558;42.702;23.178;2023-08-07T13:12:22;1.30;;;1.20;;
11010;SDS011;5558;42.702;23.178;2023-08-07T13:14:49;4.00;;;1.30;;
11010;SDS011;5558;42.702;23.178;2023-08-07T13:17:15;1.67;;;1.10;;
11010;SDS011;5558;42.702;23.178;2023-08-07T13:19:43;1.20;;;1.10;;
11010;SDS011;5558;42.702;23.178;2023-08-07T13:22:10;1.27;;;1.20;;
11010;SDS011;5558;42.702;23.178;2023-08-07T13:24:37;1.60;;;1.20;;
11010;SDS011;5558;42.702;23.178;2023-08-07T13:27:04;1.60;;;1.20;;
11010;SDS011;5558;42.702;23.178;2023-08-07T13:29:31;1.40;;;1.30;;
11010;SDS011;5558;42.702;23.178;2023-08-07T13:31:58;3.60;;;1.20;;
11010;SDS011;5558;42.702;23.178;2023-08-07T13:34:25;2.17;;;1.50;;
11010;SDS011;5558;42.702;23.178;2023-08-07T13:36:53;5.33;;;1.40;;
11010;SDS011;5558;42.702;23.178;2023-08-07T13:39:20;2.73;;;1.60;;
11010;SDS011;5558;42.702;23.178;2023-08-07T13:41:47;3.13;;;1.50;;
11010;SDS011;5558;42.702;23.178;2023-08-07T13:44:13;2.23;;;1.50;;
11010;SDS011;5558;42.702;23.178;2023-08-07T13:46:40;1.63;;;1.30;;
11010;SDS011;5558;42.702;23.178;2023-08-07T13:49:06;1.53;;;1.40;;
11010;SDS011;5558;42.702;23.178;2023-08-07T13:51:34;1.50;;;1.40;;
11010;SDS011;5558;42.702;23.178;2023-08-07T13:54:03;1.60;;;1.50;;
11010;SDS011;5558;42.702;23.178;2023-08-07T13:56:30;1.50;;;1.40;;
11010;SDS011;5558;42.702;23.178;2023-08-07T13:58:57;2.80;;;1.50;;
11010;SDS011;5558;42.702;23.178;2023-08-07T14:01:23;1.50;;;1.40;;
11010;SDS011;5558;42.702;23.178;2023-08-07T14:03:50;1.60;;;1.27;;
11010;SDS011;5558;42.702;23.178;2023-08-07T14:06:17;1.40;;;1.30;;
11010;SDS011;5558;42.702;23.178;2023-08-07T14:08:43;1.20;;;1.20;;
11010;SDS011;5558;42.702;23.178;2023-08-07T14:11:11;2.10;;;1.30;;
11010;SDS011;5558;42.702;23.178;2023-08-07T14:13:40;1.40;;;1.30;;
11010;SDS011;5558;42.702;23.178;2023-08-07T14:16:07;1.17;;;1.17;;
11010;SDS011;5558;42.702;23.178;2023-08-07T14:18:33;1.17;;;1.13;;
11010;SDS011;5558;42.702;23.178;2023-08-07T14:21:00;1.10;;;1.10;;
11010;SDS011;5558;42.702;23.178;2023-08-07T14:23:27;1.20;;;1.10;;
11010;SDS011;5558;42.702;23.178;2023-08-07T14:25:53;1.30;;;1.20;;
11010;SDS011;5558;42.702;23.178;2023-08-07T14:28:21;1.27;;;1.17;;
11010;SDS011;5558;42.702;23.178;2023-08-07T14:30:48;2.33;;;1.30;;
11010;SDS011;5558;42.702;23.178;2023-08-07T14:33:15;1.33;;;1.23;;
11010;SDS011;5558;42.702;23.178;2023-08-07T14:35:42;1.80;;;1.40;;
11010;SDS011;5558;42.702;23.178;2023-08-07T14:38:09;1.73;;;1.20;;
11010;SDS011;5558;42.702;23.178;2023-08-07T14:40:35;1.37;;;1.27;;
11010;SDS011;5558;42.702;23.178;2023-08-07T14:43:04;1.70;;;1.23;;
11010;SDS011;5558;42.702;23.178;2023-08-07T14:45:32;1.57;;;1.30;;
11010;SDS011;5558;42.702;23.178;2023-08-07T14:47:59;1.83;;;1.30;;
11010;SDS011;5558;42.702;23.178;2023-08-07T14:50:26;1.20;;;1.10;;
11010;SDS011;5558;42.702;23.178;2023-08-07T14:52:52;1.47;;;1.27;;
11010;SDS011;5558;42.702;23.178;2023-08-07T14:55:19;2.83;;;1.30;;
11010;SDS011;5558;42.702;23.178;2023-08-07T14:57:46;5.33;;;1.50;;
11010;SDS011;5558;42.702;23.178;2023-08-07T15:00:13;2.30;;;1.30;;
11010;SDS011;5558;42.702;23.178;2023-08-07T15:02:43;2.20;;;1.30;;
11010;SDS011;5558;42.702;23.178;2023-08-07T15:05:09;2.63;;;1.40;;
11010;SDS011;5558;42.702;23.178;2023-08-07T15:07:36;4.50;;;1.50;;
11010;SDS011;5558;42.702;23.178;2023-08-07T15:10:03;2.67;;;1.30;;
11010;SDS011;5558;42.702;23.178;2023-08-07T15:12:30;1.40;;;1.20;;
11010;SDS011;5558;42.702;23.178;2023-08-07T15:14:56;2.60;;;1.40;;
11010;SDS011;5558;42.702;23.178;2023-08-07T15:17:24;1.40;;;1.20;;
11010;SDS011;5558;42.702;23.178;2023-08-07T15:19:52;2.83;;;1.40;;
11010;SDS011;5558;42.702;23.178;2023-08-07T15:22:19;4.00;;;1.47;;
11010;SDS011;5558;42.702;23.178;2023-08-07T15:24:45;2.40;;;1.30;;
11010;SDS011;5558;42.702;23.178;2023-08-07T15:27:12;1.50;;;1.40;;
11010;SDS011;5558;42.702;23.178;2023-08-07T15:29:39;2.87;;;1.37;;
11010;SDS011;5558;42.702;23.178;2023-08-07T15:32:06;1.40;;;1.30;;
11010;SDS011;5558;42.702;23.178;2023-08-07T15:34:33;3.47;;;1.40;;
11010;SDS011;5558;42.702;23.178;2023-08-07T15:37:01;2.37;;;1.40;;
11010;SDS011;5558;42.702;23.178;2023-08-07T15:39:28;4.37;;;1.40;;
11010;SDS011;5558;42.702;23.178;2023-08-07T15:41:55;1.50;;;1.40;;
11010;SDS011;5558;42.702;23.178;2023-08-07T15:44:22;4.00;;;1.40;;
11010;SDS011;5558;42.702;23.178;2023-08-07T15:46:48;2.90;;;1.43;;
11010;SDS011;5558;42.702;23.178;2023-08-07T15:49:15;2.70;;;1.50;;
11010;SDS011;5558;42.702;23.178;2023-08-07T15:51:41;2.57;;;1.50;;
11010;SDS011;5558;42.702;23.178;2023-08-07T15:54:10;1.57;;;1.30;;
11010;SDS011;5558;42.702;23.178;2023-08-07T15:56:36;2.33;;;1.47;;
11010;SDS011;5558;42.702;23.178;2023-08-07T15:59:03;2.30;;;1.30;;
11010;SDS011;5558;42.702;23.178;2023-08-07T16:01:30;1.80;;;1.50;;
11010;SDS011;5558;42.702;23.178;2023-08-07T16:03:57;1.40;;;1.30;;
11010;SDS011;5558;42.702;23.178;2023-08-07T16:06:23;1.63;;;1.40;;
11010;SDS011;5558;42.702;23.178;2023-08-07T16:08:51;1.63;;;1.50;;
11010;SDS011;5558;42.702;23.178;2023-08-07T16:11:21;1.37;;;1.27;;
11010;SDS011;5558;42.702;23.178;2023-08-07T16:13:47;1.73;;;1.40;;
11010;SDS011;5558;42.702;23.178;2023-08-07T16:16:15;1.70;;;1.27;;
11010;SDS011;5558;42.702;23.178;2023-08-07T16:18:41;1.40;;;1.30;;
11010;SDS011;5558;42.702;23.178;2023-08-07T16:21:08;1.40;;;1.30;;
11010;SDS011;5558;42.702;23.178;2023-08-07T16:23:35;2.03;;;1.40;;
11010;SDS011;5558;42.702;23.178;2023-08-07T16:26:02;1.77;;;1.30;;
11010;SDS011;5558;42.702;23.178;2023-08-07T16:28:30;7.17;;;1.53;;
11010;SDS011;5558;42.702;23.178;2023-08-07T16:30:57;1.40;;;1.30;;
11010;SDS011;5558;42.702;23.178;2023-08-07T16:33:23;1.37;;;1.20;;
11010;SDS011;5558;42.702;23.178;2023-08-07T16:35:50;2.20;;;1.50;;
11010;SDS011;5558;42.702;23.178;2023-08-07T16:38:18;1.77;;;1.57;;
11010;SDS011;5558;42.702;23.178;2023-08-07T16:40:45;1.87;;;1.30;;
11010;SDS011;5558;42.702;23.178;2023-08-07T16:43:11;3.87;;;1.70;;
11010;SDS011;5558;42.702;23.178;2023-08-07T16:45:39;2.00;;;1.40;;
11010;SDS011;5558;42.702;23.178;2023-08-07T16:48:06;3.07;;;1.83;;
11010;SDS011;5558;42.702;23.178;2023-08-07T16:50:33;1.83;;;1.70;;
11010;SDS011;5558;42.702;23.178;2023-08-07T16:52:59;3.67;;;1.50;;
11010;SDS011;5558;42.702;23.178;2023-08-07T16:55:26;2.30;;;1.40;;
11010;SDS011;5558;42.702;23.178;2023-08-07T16:57:53;1.40;;;1.30;;
11010;SDS011;5558;42.702;23.178;2023-08-07T17:00:20;1.93;;;1.57;;
11010;SDS011;5558;42.702;23.178;2023-08-07T17:02:48;2.77;;;1.50;;
11010;SDS011;5558;42.702;23.178;2023-08-07T17:05:15;3.03;;;1.40;;
11010;SDS011;5558;42.702;23.178;2023-08-07T17:07:42;1.23;;;1.20;;
11010;SDS011;5558;42.702;23.178;2023-08-07T17:10:09;2.93;;;1.43;;
11010;SDS011;5558;42.702;23.178;2023-08-07T17:12:40;1.80;;;1.70;;
11010;SDS011;5558;42.702;23.178;2023-08-07T17:15:08;2.47;;;1.60;;
11010;SDS011;5558;42.702;23.178;2023-08-07T17:17:35;2.10;;;1.43;;
11010;SDS011;5558;42.702;23.178;2023-08-07T17:20:04;1.50;;;1.30;;
11010;SDS011;5558;42.702;23.178;2023-08-07T17:22:32;1.67;;;1.40;;
11010;SDS011;5558;42.702;23.178;2023-08-07T17:24:58;1.53;;;1.40;;
11010;SDS011;5558;42.702;23.178;2023-08-07T17:27:25;1.37;;;1.27;;
11010;SDS011;5558;42.702;23.178;2023-08-07T17:29:51;1.40;;;1.30;;
11010;SDS011;5558;42.702;23.178;2023-08-07T17:32:19;1.77;;;1.50;;
11010;SDS011;5558;42.702;23.178;2023-08-07T17:34:46;1.50;;;1.40;;
11010;SDS011;5558;42.702;23.178;2023-08-07T17:37:14;1.50;;;1.40;;
11010;SDS011;5558;42.702;23.178;2023-08-07T17:39:40;2.10;;;1.47;;
11010;SDS011;5558;42.702;23.178;2023-08-07T17:42:07;1.40;;;1.30;;
11010;SDS011;5558;42.702;23.178;2023-08-07T17:44:35;4.33;;;1.47;;
11010;SDS011;5558;42.702;23.178;2023-08-07T17:47:02;2.43;;;1.60;;
11010;SDS011;5558;42.702;23.178;2023-08-07T17:49:29;4.13;;;1.40;;
11010;SDS011;5558;42.702;23.178;2023-08-07T17:51:55;2.33;;;1.60;;
11010;SDS011;5558;42.702;23.178;2023-08-07T17:54:23;1.83;;;1.50;;
11010;SDS011;5558;42.702;23.178;2023-08-07T17:56:50;1.70;;;1.60;;
11010;SDS011;5558;42.702;23.178;2023-08-07T17:59:17;1.70;;;1.60;;
11010;SDS011;5558;42.702;23.178;2023-08-07T18:01:44;1.53;;;1.43;;
11010;SDS011;5558;42.702;23.178;2023-08-07T18:04:10;1.60;;;1.50;;
11010;SDS011;5558;42.702;23.178;2023-08-07T18:06:37;1.60;;;1.50;;
11010;SDS011;5558;42.702;23.178;2023-08-07T18:09:04;1.70;;;1.60;;
11010;SDS011;5558;42.702;23.178;2023-08-07T18:11:31;1.87;;;1.60;;
11010;SDS011;5558;42.702;23.178;2023-08-07T18:13:58;2.10;;;1.40;;
11010;SDS011;5558;42.702;23.178;2023-08-07T18:16:25;1.90;;;1.50;;
11010;SDS011;5558;42.702;23.178;2023-08-07T18:18:51;1.47;;;1.37;;
11010;SDS011;5558;42.702;23.178;2023-08-07T18:21:19;1.70;;;1.60;;
11010;SDS011;5558;42.702;23.178;2023-08-07T18:23:46;3.20;;;1.47;;
11010;SDS011;5558;42.702;23.178;2023-08-07T18:26:13;2.60;;;1.60;;
11010;SDS011;5558;42.702;23.178;2023-08-07T18:28:41;2.13;;;1.50;;
11010;SDS011;5558;42.702;23.178;2023-08-07T18:31:08;1.80;;;1.70;;
11010;SDS011;5558;42.702;23.178;2023-08-07T18:33:34;2.63;;;1.80;;
11010;SDS011;5558;42.702;23.178;2023-08-07T18:36:02;3.33;;;1.60;;
11010;SDS011;5558;42.702;23.178;2023-08-07T18:38:29;2.27;;;1.50;;
11010;SDS011;5558;42.702;23.178;2023-08-07T18:40:56;2.90;;;1.70;;
11010;SDS011;5558;42.702;23.178;2023-08-07T18:43:23;2.23;;;1.70;;
11010;SDS011;5558;42.702;23.178;2023-08-07T18:45:51;2.27;;;1.70;;
11010;SDS011;5558;42.702;23.178;2023-08-07T18:48:17;1.60;;;1.50;;
11010;SDS011;5558;42.702;23.178;2023-08-07T18:50:44;1.70;;;1.60;;
11010;SDS011;5558;42.702;23.178;2023-08-07T18:53:11;3.20;;;2.00;;
11010;SDS011;5558;42.702;23.178;2023-08-07T18:55:38;1.83;;;1.60;;
11010;SDS011;5558;42.702;23.178;2023-08-07T18:58:04;2.20;;;1.60;;
11010;SDS011;5558;42.702;23.178;2023-08-07T19:00:31;2.10;;;1.90;;
11010;SDS011;5558;42.702;23.178;2023-08-07T19:02:59;2.83;;;1.80;;
11010;SDS011;5558;42.702;23.178;2023-08-07T19:05:26;1.73;;;1.60;;
11010;SDS011;5558;42.702;23.178;2023-08-07T19:07:52;2.37;;;1.60;;
11010;SDS011;5558;42.702;23.178;2023-08-07T19:10:19;3.53;;;1.60;;
11010;SDS011;5558;42.702;23.178;2023-08-07T19:12:46;2.60;;;1.60;;
11010;SDS011;5558;42.702;23.178;2023-08-07T19:15:12;3.07;;;1.70;;
11010;SDS011;5558;42.702;23.178;2023-08-07T19:17:41;2.63;;;1.70;;
11010;SDS011;5558;42.702;23.178;2023-08-07T19:20:10;3.10;;;1.70;;
11010;SDS011;5558;42.702;23.178;2023-08-07T19:22:37;3.07;;;1.60;;
11010;SDS011;5558;42.702;23.178;2023-08-07T19:25:04;2.73;;;1.73;;
11010;SDS011;5558;42.702;23.178;2023-08-07T19:27:31;1.70;;;1.60;;
11010;SDS011;5558;42.702;23.178;2023-08-07T19:29:58;3.43;;;1.70;;
11010;SDS011;5558;42.702;23.178;2023-08-07T19:32:25;1.60;;;1.50;;
11010;SDS011;5558;42.702;23.178;2023-08-07T19:34:52;3.93;;;1.90;;
11010;SDS011;5558;42.702;23.178;2023-08-07T19:37:20;5.80;;;2.80;;
11010;SDS011;5558;42.702;23.178;2023-08-07T19:39:47;5.47;;;2.90;;
11010;SDS011;5558;42.702;23.178;2023-08-07T19:42:14;5.47;;;2.60;;
11010;SDS011;5558;42.702;23.178;2023-08-07T19:44:40;3.50;;;2.20;;
11010;SDS011;5558;42.702;23.178;2023-08-07T19:47:08;5.50;;;2.63;;
11010;SDS011;5558;42.702;23.178;2023-08-07T19:49:35;5.70;;;3.00;;
11010;SDS011;5558;42.702;23.178;2023-08-07T19:52:02;2.87;;;2.30;;
11010;SDS011;5558;42.702;23.178;2023-08-07T19:54:31;4.13;;;2.33;;
11010;SDS011;5558;42.702;23.178;2023-08-07T19:56:57;2.83;;;2.40;;
11010;SDS011;5558;42.702;23.178;2023-08-07T19:59:24;4.60;;;2.47;;
11010;SDS011;5558;42.702;23.178;2023-08-07T20:01:51;3.00;;;2.10;;
11010;SDS011;5558;42.702;23.178;2023-08-07T20:04:17;4.10;;;2.30;;
11010;SDS011;5558;42.702;23.178;2023-08-07T20:06:44;3.53;;;2.10;;
11010;SDS011;5558;42.702;23.178;2023-08-07T20:09:11;4.03;;;2.43;;
11010;SDS011;5558;42.702;23.178;2023-08-07T20:11:39;2.73;;;2.23;;
11010;SDS011;5558;42.702;23.178;2023-08-07T20:14:07;2.93;;;2.30;;
11010;SDS011;5558;42.702;23.178;2023-08-07T20:16:34;3.77;;;2.20;;
11010;SDS011;5558;42.702;23.178;2023-08-07T20:19:01;4.33;;;2.50;;
11010;SDS011;5558;42.702;23.178;2023-08-07T20:21:27;3.37;;;2.20;;
11010;SDS011;5558;42.702;23.178;2023-08-07T20:23:54;3.23;;;2.20;;
11010;SDS011;5558;42.702;23.178;2023-08-07T20:26:21;4.03;;;2.53;;
11010;SDS011;5558;42.702;23.178;2023-08-07T20:28:50;3.87;;;2.50;;
11010;SDS011;5558;42.702;23.178;2023-08-07T20:31:17;3.97;;;2.60;;
11010;SDS011;5558;42.702;23.178;2023-08-07T20:33:43;4.53;;;2.60;;
11010;SDS011;5558;42.702;23.178;2023-08-07T20:36:10;5.13;;;2.23;;
11010;SDS011;5558;42.702;23.178;2023-08-07T20:38:37;5.17;;;2.50;;
11010;SDS011;5558;42.702;23.178;2023-08-07T20:41:03;4.00;;;2.50;;
11010;SDS011;5558;42.702;23.178;2023-08-07T20:43:30;2.93;;;2.40;;
11010;SDS011;5558;42.702;23.178;2023-08-07T20:45:59;5.53;;;2.73;;
11010;SDS011;5558;42.702;23.178;2023-08-07T20:48:25;4.43;;;2.80;;
11010;SDS011;5558;42.702;23.178;2023-08-07T20:50:52;3.27;;;2.40;;
11010;SDS011;5558;42.702;23.178;2023-08-07T20:53:19;3.97;;;2.57;;
11010;SDS011;5558;42.702;23.178;2023-08-07T20:55:47;3.70;;;2.97;;
11010;SDS011;5558;42.702;23.178;2023-08-07T20:58:13;3.17;;;2.87;;
11010;SDS011;5558;42.702;23.178;2023-08-07T21:00:40;2.73;;;2.50;;
11010;SDS011;5558;42.702;23.178;2023-08-07T21:03:08;2.57;;;1.80;;
11010;SDS011;5558;42.702;23.178;2023-08-07T21:05:35;3.63;;;2.20;;
11010;SDS011;5558;42.702;23.178;2023-08-07T21:08:01;2.30;;;2.10;;
11010;SDS011;5558;42.702;23.178;2023-08-07T21:10:28;2.43;;;2.13;;
11010;SDS011;5558;42.702;23.178;2023-08-07T21:12:55;2.23;;;2.03;;
11010;SDS011;5558;42.702;23.178;2023-08-07T21:15:22;1.67;;;1.57;;
11010;SDS011;5558;42.702;23.178;2023-08-07T21:17:49;1.70;;;1.60;;
11010;SDS011;5558;42.702;23.178;2023-08-07T21:20:17;1.73;;;1.50;;
11010;SDS011;5558;42.702;23.178;2023-08-07T21:22:44;1.30;;;1.20;;
11010;SDS011;5558;42.702;23.178;2023-08-07T21:25:11;1.40;;;1.30;;
11010;SDS011;5558;42.702;23.178;2023-08-07T21:27:38;1.20;;;1.10;;
11010;SDS011;5558;42.702;23.178;2023-08-07T21:30:05;1.40;;;1.10;;
11010;SDS011;5558;42.702;23.178;2023-08-07T21:32:33;1.00;;;0.90;;
11010;SDS011;5558;42.702;23.178;2023-08-07T21:34:59;1.17;;;1.07;;
11010;SDS011;5558;42.702;23.178;2023-08-07T21:37:30;2.10;;;1.00;;
11010;SDS011;5558;42.702;23.178;2023-08-07T21:39:57;1.23;;;0.90;;
11010;SDS011;5558;42.702;23.178;2023-08-07T21:42:24;0.87;;;0.87;;
11010;SDS011;5558;42.702;23.178;2023-08-07T21:44:53;1.43;;;0.90;;
11010;SDS011;5558;42.702;23.178;2023-08-07T21:47:20;0.90;;;0.80;;
11010;SDS011;5558;42.702;23.178;2023-08-07T21:49:46;0.90;;;0.90;;
11010;SDS011;5558;42.702;23.178;2023-08-07T21:52:13;1.30;;;0.90;;
11010;SDS011;5558;42.702;23.178;2023-08-07T21:54:41;1.17;;;0.90;;
11010;SDS011;5558;42.702;23.178;2023-08-07T21:57:08;0.80;;;0.80;;
11010;SDS011;5558;42.702;23.178;2023-08-07T21:59:35;1.70;;;0.90;;
11010;SDS011;5558;42.702;23.178;2023-08-07T22:02:01;0.83;;;0.83;;
11010;SDS011;5558;42.702;23.178;2023-08-07T22:04:28;1.37;;;0.90;;
11010;SDS011;5558;42.702;23.178;2023-08-07T22:06:55;1.17;;;0.90;;
11010;SDS011;5558;42.702;23.178;2023-08-07T22:09:22;0.80;;;0.80;;
11010;SDS011;5558;42.702;23.178;2023-08-07T22:11:50;0.80;;;0.80;;
11010;SDS011;5558;42.702;23.178;2023-08-07T22:14:17;0.80;;;0.80;;
11010;SDS011;5558;42.702;23.178;2023-08-07T22:16:44;0.77;;;0.77;;
11010;SDS011;5558;42.702;23.178;2023-08-07T22:19:12;1.23;;;0.77;;
11010;SDS011;5558;42.702;23.178;2023-08-07T22:21:38;1.50;;;0.90;;
11010;SDS011;5558;42.702;23.178;2023-08-07T22:24:06;0.80;;;0.80;;
11010;SDS011;5558;42.702;23.178;2023-08-07T22:26:33;0.70;;;0.70;;
11010;SDS011;5558;42.702;23.178;2023-08-07T22:29:01;0.80;;;0.73;;
11010;SDS011;5558;42.702;23.178;2023-08-07T22:31:27;2.13;;;0.90;;
11010;SDS011;5558;42.702;23.178;2023-08-07T22:33:54;1.00;;;0.90;;
11010;SDS011;5558;42.702;23.178;2023-08-07T22:36:21;1.00;;;1.00;;
11010;SDS011;5558;42.702;23.178;2023-08-07T22:38:48;1.00;;;0.80;;
11010;SDS011;5558;42.702;23.178;2023-08-07T22:41:14;1.00;;;1.00;;
11010;SDS011;5558;42.702;23.178;2023-08-07T22:43:41;1.07;;;1.07;;
11010;SDS011;5558;42.702;23.178;2023-08-07T22:46:09;0.90;;;0.90;;
11010;SDS011;5558;42.702;23.178;2023-08-07T22:48:36;0.90;;;0.90;;
11010;SDS011;5558;42.702;23.178;2023-08-07T22:51:02;2.73;;;1.00;;
11010;SDS011;5558;42.702;23.178;2023-08-07T22:53:31;1.10;;;1.00;;
11010;SDS011;5558;42.702;23.178;2023-08-07T22:55:57;1.10;;;1.00;;
11010;SDS011;5558;42.702;23.178;2023-08-07T22:58:25;0.90;;;0.90;;
11010;SDS011;5558;42.702;23.178;2023-08-07T23:00:52;1.10;;;1.00;;
11010;SDS011;5558;42.702;23.178;2023-08-07T23:03:20;0.90;;;0.90;;
11010;SDS011;5558;42.702;23.178;2023-08-07T23:05:46;0.90;;;0.90;;
11010;SDS011;5558;42.702;23.178;2023-08-07T23:08:13;0.90;;;0.90;;
11010;SDS011;5558;42.702;23.178;2023-08-07T23:10:40;1.20;;;1.20;;
11010;SDS011;5558;42.702;23.178;2023-08-07T23:13:06;1.10;;;1.00;;
11010;SDS011;5558;42.702;23.178;2023-08-07T23:15:33;1.03;;;1.00;;
11010;SDS011;5558;42.702;23.178;2023-08-07T23:18:00;1.10;;;1.10;;
11010;SDS011;5558;42.702;23.178;2023-08-07T23:20:28;1.43;;;1.10;;
11010;SDS011;5558;42.702;23.178;2023-08-07T23:22:55;1.20;;;1.10;;
11010;SDS011;5558;42.702;23.178;2023-08-07T23:25:21;1.83;;;1.30;;
11010;SDS011;5558;42.702;23.178;2023-08-07T23:27:48;1.20;;;1.10;;
11010;SDS011;5558;42.702;23.178;2023-08-07T23:30:15;1.80;;;1.37;;
11010;SDS011;5558;42.702;23.178;2023-08-07T23:32:42;1.63;;;1.20;;
11010;SDS011;5558;42.702;23.178;2023-08-07T23:35:08;1.30;;;1.20;;
11010;SDS011;5558;42.702;23.178;2023-08-07T23:37:36;1.20;;;1.17;;
11010;SDS011;5558;42.702;23.178;2023-08-07T23:40:03;2.80;;;1.20;;
11010;SDS011;5558;42.702;23.178;2023-08-07T23:42:31;1.63;;;1.20;;
11010;SDS011;5558;42.702;23.178;2023-08-07T23:44:58;1.40;;;1.30;;
11010;SDS011;5558;42.702;23.178;2023-08-07T23:47:25;1.83;;;1.30;;
11010;SDS011;5558;42.702;23.178;2023-08-07T23:49:51;1.30;;;1.20;;
11010;SDS011;5558;42.702;23.178;2023-08-07T23:52:18;2.43;;;1.33;;
11010;SDS011;5558;42.702;23.178;2023-08-07T23:54:46;1.27;;;1.20;;
11010;SDS011;5558;42.702;23.178;2023-08-07T23:57:13;1.27;;;1.20;;
11010;SDS011;5558;42.702;23.178;2023-08-07T23:59:40;1.20;;;1.10;;
